Terminal Aerodrome Forecast
Issued by NWS

Home | Current Version | Previous Version | Text Only | Print | Product List | Glossary On
Versions: 1 2 3 4 5 6 7 8 9 10 11 12 13 14 15 16
000
FTAK31 PAJN 201900 AAA
TAFASI
TAF AMD
PASI 201943Z 2020/2118 12011G22KT P6SM VCSH SCT030 BKN050
      WS020/12035KT
     FM202100 14010G20KT 6SM -RA BKN030 OVC050
     FM210200 13010KT P6SM VCSH BKN030 OVC050
     FM211200 15010G20KT P6SM -RA OVC035=

USA.gov is the U.S. government's official web portal to all federal, state and local government web resources and services.